< < Back
Terminal Aerodrome Forecast


Current Version              Previous Versions:   1  2  3  4  5  6  7  8  9  

Terminal Aerodrome Forecast

725
FTUS42 KCAE 300539
TAFAGS
TAF
KAGS 300539Z 3006/3106 VRB04KT P6SM VCSH SCT040 BKN060 BKN150
      TEMPO 3006/3008 1SM +RA BR BKN015 OVC040
     FM301600 20005KT P6SM SCT050 SCT200=

Latest METAR

804
SAUS70 KWBC 300800 RRI
MTRAGS
METAR KAGS 300753Z AUTO 23004KT 10SM SCT048 25/24 A2994 RMK AO2 RAE0656
SLP135 P0000 T02500244


USA.gov is the U.S. government's official web portal to all federal, state and local government web resources and services.